This is the latest recevied weather packets stored in our database for station/object LKCS. If no packets are shown the sender has not sent any weather packets the latest 10 day(s).
| Time | Temp. | Humidity | Pressure | Rain* | Wind** | Luminosity | Snow |
|---|---|---|---|---|---|---|---|
| 1788096758 | 27.22° C | 44% | 1016 hPa | - | - | - | - |
| 1788094994 | 27.22° C | 44% | 1016 hPa | - | - | - | - |
| 1788093185 | 26.11° C | 47% | 1016 hPa | - | - | - | - |
| 1788091395 | 26.11° C | 47% | 1016 hPa | - | - | - | - |
| 1788089558 | 26.11° C | 47% | 1017 hPa | - | - | - | - |
| 1788087762 | 25° C | 50% | 1017 hPa | - | - | - | - |
| 1788085965 | 25° C | 50% | 1017 hPa | - | - | - | - |
| 1788084194 | 25° C | 50% | 1017 hPa | - | - | - | - |
| 1788082365 | 23.89° C | 53% | 1017 hPa | - | - | - | - |
| 1788082145 | 23.89° C | 53% | 1017 hPa | - | - | - | - |
| 1788080594 | 22.78° C | 53% | 1018 hPa | - | - | - | - |
| 1788078785 | 22.22° C | 60% | 1018 hPa | - | - | - | - |
| 1788076959 | 21.11° C | 60% | 1018 hPa | - | - | - | - |
| 1788075165 | 20° C | 64% | 1017 hPa | - | - | - | - |
| 1788073393 | 20° C | 64% | 1017 hPa | - | - | - | - |
| 1788071585 | 18.89° C | 72% | 1017 hPa | - | - | - | - |
| 1788069786 | 17.22° C | 77% | 1017 hPa | - | - | - | - |
| 1788067951 | 16.11° C | 82% | 1017 hPa | - | - | - | - |
| 1788066167 | 16.11° C | 77% | 1017 hPa | - | - | - | - |
| 1788064385 | 16.11° C | 77% | 1017 hPa | - | - | - | - |
| 1788062587 | 16.11° C | 77% | 1017 hPa | - | - | - | - |
| 1788060786 | 13.89° C | 87% | 1017 hPa | - | - | - | - |
| 1788058986 | 13.89° C | 87% | 1017 hPa | - | - | - | - |
| 1788057184 | 15° C | 82% | 1017 hPa | - | - | - | - |
| 1788055386 | 13.89° C | 87% | 1017 hPa | - | - | - | - |
* Rain since midnight (hover to see other rain measurements)
** Current wind speed in m/s (hover to see current wind gust speed)